sensor_id;sensor_type;location;lat;lon;timestamp;pressure;altitude;pressure_sealevel;temperature;humidity
60897;BME280;46749;32.932;-117.130;2023-03-22T00:01:09;98197.28;;;13.79;61.57
60897;BME280;46749;32.932;-117.130;2023-03-22T00:03:36;98224.19;;;13.81;61.69
60897;BME280;46749;32.932;-117.130;2023-03-22T00:06:02;98243.31;;;13.83;61.63
60897;BME280;46749;32.932;-117.130;2023-03-22T00:08:29;98277.16;;;13.86;61.82
60897;BME280;46749;32.932;-117.130;2023-03-22T00:10:55;98301.47;;;13.90;61.86
60897;BME280;46749;32.932;-117.130;2023-03-22T00:13:21;98325.78;;;13.92;61.82
60897;BME280;46749;32.932;-117.130;2023-03-22T00:15:47;98359.63;;;13.95;61.91
60897;BME280;46749;32.932;-117.130;2023-03-22T00:18:17;98388.31;;;13.98;61.86
60897;BME280;46749;32.932;-117.130;2023-03-22T00:20:52;98430.91;;;14.00;62.04
60897;BME280;46749;32.932;-117.130;2023-03-22T00:23:19;98453.50;;;14.02;62.05
60897;BME280;46749;32.932;-117.130;2023-03-22T00:25:46;98474.31;;;14.06;62.08
60897;BME280;46749;32.932;-117.130;2023-03-22T00:28:13;98483.88;;;14.08;62.17
60897;BME280;46749;32.932;-117.130;2023-03-22T00:30:41;98497.75;;;14.10;62.06
60897;BME280;46749;32.932;-117.130;2023-03-22T00:33:08;98511.63;;;14.12;62.24
60897;BME280;46749;32.932;-117.130;2023-03-22T00:35:34;98536.00;;;14.14;62.32
60897;BME280;46749;32.932;-117.130;2023-03-22T00:38:00;98549.00;;;14.17;62.50
60897;BME280;46749;32.932;-117.130;2023-03-22T00:40:39;98566.34;;;14.20;62.42
60897;BME280;46749;32.932;-117.130;2023-03-22T00:43:06;98565.47;;;14.22;62.35
60897;BME280;46749;32.932;-117.130;2023-03-22T00:45:33;98595.03;;;14.24;62.57
60897;BME280;46749;32.932;-117.130;2023-03-22T00:48:02;98594.13;;;14.25;62.45
60897;BME280;46749;32.932;-117.130;2023-03-22T00:50:28;98610.69;;;14.24;62.90
60897;BME280;46749;32.932;-117.130;2023-03-22T00:52:54;98623.75;;;14.24;62.43
60897;BME280;46749;32.932;-117.130;2023-03-22T00:55:21;98622.00;;;14.23;62.82
60897;BME280;46749;32.932;-117.130;2023-03-22T00:57:47;98640.28;;;14.23;62.60
60897;BME280;46749;32.932;-117.130;2023-03-22T01:00:15;98656.84;;;14.22;62.19
60897;BME280;46749;32.932;-117.130;2023-03-22T01:02:41;98673.38;;;14.23;62.54
60897;BME280;46749;32.932;-117.130;2023-03-22T01:05:08;98679.47;;;14.22;62.62
60897;BME280;46749;32.932;-117.130;2023-03-22T01:07:43;98702.06;;;14.24;62.52
60897;BME280;46749;32.932;-117.130;2023-03-22T01:10:11;98722.94;;;14.26;62.26
60897;BME280;46749;32.932;-117.130;2023-03-22T01:12:38;98723.78;;;14.26;62.21
60897;BME280;46749;32.932;-117.130;2023-03-22T01:15:05;98738.59;;;14.26;62.49
60897;BME280;46749;32.932;-117.130;2023-03-22T01:17:32;98740.34;;;14.25;62.28
60897;BME280;46749;32.932;-117.130;2023-03-22T01:19:58;98762.97;;;14.25;62.66
60897;BME280;46749;32.932;-117.130;2023-03-22T01:22:24;98768.19;;;14.26;62.25
60897;BME280;46749;32.932;-117.130;2023-03-22T01:24:51;98769.94;;;14.27;62.44
60897;BME280;46749;32.932;-117.130;2023-03-22T01:27:17;98776.00;;;14.29;62.53
60897;BME280;46749;32.932;-117.130;2023-03-22T01:29:43;98791.66;;;14.29;62.34
60897;BME280;46749;32.932;-117.130;2023-03-22T01:32:09;98803.00;;;14.28;62.40
60897;BME280;46749;32.932;-117.130;2023-03-22T01:34:36;98811.72;;;14.27;62.42
60897;BME280;46749;32.932;-117.130;2023-03-22T01:37:02;98823.91;;;14.27;62.35
60897;BME280;46749;32.932;-117.130;2023-03-22T01:39:28;98830.84;;;14.28;62.47
60897;BME280;46749;32.932;-117.130;2023-03-22T01:41:54;98838.66;;;14.29;62.59
60897;BME280;46749;32.932;-117.130;2023-03-22T01:44:22;98844.72;;;14.31;62.31
60897;BME280;46749;32.932;-117.130;2023-03-22T01:46:49;98856.03;;;14.32;62.58
60897;BME280;46749;32.932;-117.130;2023-03-22T01:49:32;98863.00;;;14.31;62.40
60897;BME280;46749;32.932;-117.130;2023-03-22T01:52:11;98868.22;;;14.31;62.55
60897;BME280;46749;32.932;-117.130;2023-03-22T01:54:57;98874.34;;;14.30;62.51
60897;BME280;46749;32.932;-117.130;2023-03-22T01:57:23;98887.41;;;14.30;62.46
60897;BME280;46749;32.932;-117.130;2023-03-22T01:59:50;98896.13;;;14.29;62.54
60897;BME280;46749;32.932;-117.130;2023-03-22T02:02:17;98899.59;;;14.28;62.54
60897;BME280;46749;32.932;-117.130;2023-03-22T02:04:45;98903.09;;;14.27;62.58
60897;BME280;46749;32.932;-117.130;2023-03-22T02:07:16;98913.56;;;14.27;62.53
60897;BME280;46749;32.932;-117.130;2023-03-22T02:09:54;98913.56;;;14.27;62.43
60897;BME280;46749;32.932;-117.130;2023-03-22T02:18:11;98943.06;;;14.32;62.30
60897;BME280;46749;32.932;-117.130;2023-03-22T02:56:40;99077.31;;;13.95;63.18
60897;BME280;46749;32.932;-117.130;2023-03-22T02:59:10;99087.72;;;14.04;62.90
60897;BME280;46749;32.932;-117.130;2023-03-22T03:04:10;99104.22;;;14.15;62.40
60897;BME280;46749;32.932;-117.130;2023-03-22T03:06:40;99107.66;;;14.19;62.28
60897;BME280;46749;32.932;-117.130;2023-03-22T03:09:12;99123.34;;;14.22;62.10
60897;BME280;46749;32.932;-117.130;2023-03-22T03:11:49;99123.31;;;14.20;62.18
60897;BME280;46749;32.932;-117.130;2023-03-22T03:14:21;99126.84;;;14.21;62.16
60897;BME280;46749;32.932;-117.130;2023-03-22T03:16:56;99138.16;;;14.21;61.97
60897;BME280;46749;32.932;-117.130;2023-03-22T03:19:50;99141.59;;;14.20;62.22
60897;BME280;46749;32.932;-117.130;2023-03-22T03:26:07;99165.97;;;14.19;62.16
60897;BME280;46749;32.932;-117.130;2023-03-22T03:28:49;99184.28;;;14.21;61.99
60897;BME280;46749;32.932;-117.130;2023-03-22T03:34:34;99197.31;;;14.19;61.99
60897;BME280;46749;32.932;-117.130;2023-03-22T03:37:06;99202.53;;;14.19;62.16
60897;BME280;46749;32.932;-117.130;2023-03-22T03:39:38;99209.50;;;14.17;62.00
60897;BME280;46749;32.932;-117.130;2023-03-22T03:42:10;99216.47;;;14.18;62.36
60897;BME280;46749;32.932;-117.130;2023-03-22T03:44:38;99220.84;;;14.16;62.13
60897;BME280;46749;32.932;-117.130;2023-03-22T03:47:06;99227.78;;;14.16;62.27
60897;BME280;46749;32.932;-117.130;2023-03-22T03:49:34;99228.66;;;14.16;62.35
60897;BME280;46749;32.932;-117.130;2023-03-22T03:52:00;99239.09;;;14.16;62.08
60897;BME280;46749;32.932;-117.130;2023-03-22T03:54:28;99245.22;;;14.15;62.29
60897;BME280;46749;32.932;-117.130;2023-03-22T03:56:54;99251.31;;;14.14;61.85
60897;BME280;46749;32.932;-117.130;2023-03-22T03:59:20;99262.59;;;14.13;61.97
60897;BME280;46749;32.932;-117.130;2023-03-22T04:01:47;99265.22;;;14.13;62.25
60897;BME280;46749;32.932;-117.130;2023-03-22T04:04:26;99275.66;;;14.13;62.15
60897;BME280;46749;32.932;-117.130;2023-03-22T04:06:58;99280.00;;;14.13;62.10
60897;BME280;46749;32.932;-117.130;2023-03-22T04:09:30;99292.19;;;14.14;62.02
60897;BME280;46749;32.932;-117.130;2023-03-22T04:11:57;99297.41;;;14.14;61.92
60897;BME280;46749;32.932;-117.130;2023-03-22T04:14:24;99308.75;;;14.14;61.81
60897;BME280;46749;32.932;-117.130;2023-03-22T04:16:51;99319.19;;;14.14;62.13
60897;BME280;46749;32.932;-117.130;2023-03-22T04:19:18;99324.41;;;14.14;62.05
60897;BME280;46749;32.932;-117.130;2023-03-22T04:21:44;99334.84;;;14.14;62.21
60897;BME280;46749;32.932;-117.130;2023-03-22T04:24:11;99341.78;;;14.14;61.88
60897;BME280;46749;32.932;-117.130;2023-03-22T04:26:37;99348.75;;;14.13;62.00
60897;BME280;46749;32.932;-117.130;2023-03-22T04:29:04;99362.69;;;14.12;62.09
60897;BME280;46749;32.932;-117.130;2023-03-22T04:31:32;99374.00;;;14.13;62.08
60897;BME280;46749;32.932;-117.130;2023-03-22T04:34:00;99371.38;;;14.11;62.22
60897;BME280;46749;32.932;-117.130;2023-03-22T04:36:35;99384.44;;;14.11;62.16
60897;BME280;46749;32.932;-117.130;2023-03-22T04:39:06;99394.88;;;14.11;62.19
60897;BME280;46749;32.932;-117.130;2023-03-22T04:41:34;99394.03;;;14.11;62.08
60897;BME280;46749;32.932;-117.130;2023-03-22T04:44:03;99401.84;;;14.09;62.16
60897;BME280;46749;32.932;-117.130;2023-03-22T04:46:30;99407.06;;;14.11;62.02
60897;BME280;46749;32.932;-117.130;2023-03-22T04:48:57;99407.09;;;14.09;62.00
60897;BME280;46749;32.932;-117.130;2023-03-22T04:51:24;99420.13;;;14.09;62.02
60897;BME280;46749;32.932;-117.130;2023-03-22T04:53:50;99423.59;;;14.11;61.99
60897;BME280;46749;32.932;-117.130;2023-03-22T04:56:17;99420.13;;;14.12;61.96
60897;BME280;46749;32.932;-117.130;2023-03-22T04:58:43;99428.81;;;14.13;62.00
60897;BME280;46749;32.932;-117.130;2023-03-22T05:01:11;99441.03;;;14.15;61.84
60897;BME280;46749;32.932;-117.130;2023-03-22T05:03:38;99429.72;;;14.16;62.03
60897;BME280;46749;32.932;-117.130;2023-03-22T05:06:07;99440.16;;;14.18;61.93
60897;BME280;46749;32.932;-117.130;2023-03-22T05:08:34;99447.97;;;14.19;61.99
60897;BME280;46749;32.932;-117.130;2023-03-22T05:11:12;99444.50;;;14.17;62.18
60897;BME280;46749;32.932;-117.130;2023-03-22T05:13:39;99451.47;;;14.18;62.35
60897;BME280;46749;32.932;-117.130;2023-03-22T05:16:06;99461.91;;;14.18;62.21
60897;BME280;46749;32.932;-117.130;2023-03-22T05:18:32;99482.78;;;14.18;62.25
60897;BME280;46749;32.932;-117.130;2023-03-22T05:21:00;99476.69;;;14.19;62.33
60897;BME280;46749;32.932;-117.130;2023-03-22T05:23:28;99497.59;;;14.18;62.15
60897;BME280;46749;32.932;-117.130;2023-03-22T05:25:55;99486.28;;;14.17;62.23
60897;BME280;46749;32.932;-117.130;2023-03-22T05:28:23;99497.59;;;14.16;62.23
60897;BME280;46749;32.932;-117.130;2023-03-22T05:30:51;99498.47;;;14.15;62.39
60897;BME280;46749;32.932;-117.130;2023-03-22T05:33:18;99519.34;;;14.15;62.37
60897;BME280;46749;32.932;-117.130;2023-03-22T05:35:48;99521.06;;;14.13;62.39
60897;BME280;46749;32.932;-117.130;2023-03-22T05:38:15;99526.28;;;14.13;62.16
60897;BME280;46749;32.932;-117.130;2023-03-22T05:40:42;99532.41;;;14.15;62.32
60897;BME280;46749;32.932;-117.130;2023-03-22T05:43:10;99515.00;;;14.14;62.22
60897;BME280;46749;32.932;-117.130;2023-03-22T05:45:37;99518.50;;;14.16;62.01
60897;BME280;46749;32.932;-117.130;2023-03-22T05:48:03;99522.84;;;14.14;62.13
60897;BME280;46749;32.932;-117.130;2023-03-22T05:50:29;99531.53;;;14.13;62.14
60897;BME280;46749;32.932;-117.130;2023-03-22T05:52:55;99532.38;;;14.14;62.19
60897;BME280;46749;32.932;-117.130;2023-03-22T05:55:22;99551.53;;;14.13;62.16
60897;BME280;46749;32.932;-117.130;2023-03-22T05:57:48;99564.59;;;14.13;62.04
60897;BME280;46749;32.932;-117.130;2023-03-22T06:00:17;99558.50;;;14.12;62.22
60897;BME280;46749;32.932;-117.130;2023-03-22T06:02:46;99561.13;;;14.12;62.32
60897;BME280;46749;32.932;-117.130;2023-03-22T06:05:14;99568.06;;;14.13;62.30
60897;BME280;46749;32.932;-117.130;2023-03-22T06:07:42;99576.81;;;14.15;62.23
60897;BME280;46749;32.932;-117.130;2023-03-22T06:10:11;99571.59;;;14.15;61.83
60897;BME280;46749;32.932;-117.130;2023-03-22T06:12:37;99588.13;;;14.16;61.99
60897;BME280;46749;32.932;-117.130;2023-03-22T06:15:04;99575.06;;;14.14;62.09
60897;BME280;46749;32.932;-117.130;2023-03-22T06:17:31;99568.94;;;14.14;62.17
60897;BME280;46749;32.932;-117.130;2023-03-22T06:19:57;99583.75;;;14.13;62.45
60897;BME280;46749;32.932;-117.130;2023-03-22T06:22:23;99589.84;;;14.12;62.56
60897;BME280;46749;32.932;-117.130;2023-03-22T06:24:50;99595.06;;;14.12;62.29
60897;BME280;46749;32.932;-117.130;2023-03-22T06:27:16;99588.97;;;14.13;62.29
60897;BME280;46749;32.932;-117.130;2023-03-22T06:29:43;99594.19;;;14.13;62.18
60897;BME280;46749;32.932;-117.130;2023-03-22T06:32:15;99602.03;;;14.16;62.02
60897;BME280;46749;32.932;-117.130;2023-03-22T06:34:41;99611.63;;;14.14;62.32
60897;BME280;46749;32.932;-117.130;2023-03-22T06:37:08;99618.59;;;14.15;62.22
60897;BME280;46749;32.932;-117.130;2023-03-22T06:39:34;99621.16;;;14.14;62.22
60897;BME280;46749;32.932;-117.130;2023-03-22T06:42:00;99608.97;;;14.13;62.10
60897;BME280;46749;32.932;-117.130;2023-03-22T06:44:26;99617.69;;;14.12;62.41
60897;BME280;46749;32.932;-117.130;2023-03-22T06:46:53;99630.75;;;14.10;62.39
60897;BME280;46749;32.932;-117.130;2023-03-22T06:49:19;99618.56;;;14.09;62.39
60897;BME280;46749;32.932;-117.130;2023-03-22T06:51:46;99628.13;;;14.10;62.19
60897;BME280;46749;32.932;-117.130;2023-03-22T06:54:12;99635.97;;;14.10;62.13
60897;BME280;46749;32.932;-117.130;2023-03-22T06:56:40;99643.78;;;14.09;62.09
60897;BME280;46749;32.932;-117.130;2023-03-22T06:59:07;99652.50;;;14.09;62.29
60897;BME280;46749;32.932;-117.130;2023-03-22T07:01:33;99662.91;;;14.08;62.24
60897;BME280;46749;32.932;-117.130;2023-03-22T07:03:59;99670.75;;;14.08;62.25
60897;BME280;46749;32.932;-117.130;2023-03-22T07:06:25;99682.94;;;14.07;62.40
60897;BME280;46749;32.932;-117.130;2023-03-22T07:08:51;99687.28;;;14.07;62.10
60897;BME280;46749;32.932;-117.130;2023-03-22T07:11:18;99675.97;;;14.06;62.46
60897;BME280;46749;32.932;-117.130;2023-03-22T07:13:44;99690.75;;;14.06;62.07
60897;BME280;46749;32.932;-117.130;2023-03-22T07:16:10;99685.53;;;14.06;62.04
60897;BME280;46749;32.932;-117.130;2023-03-22T07:18:37;99689.00;;;14.04;62.31
60897;BME280;46749;32.932;-117.130;2023-03-22T07:21:03;99687.28;;;14.03;61.98
60897;BME280;46749;32.932;-117.130;2023-03-22T07:23:29;99686.41;;;14.03;62.24
60897;BME280;46749;32.932;-117.130;2023-03-22T07:25:56;99698.56;;;14.01;62.20
60897;BME280;46749;32.932;-117.130;2023-03-22T07:28:23;99706.41;;;14.02;62.25
60897;BME280;46749;32.932;-117.130;2023-03-22T07:30:59;99730.75;;;14.01;62.11
60897;BME280;46749;32.932;-117.130;2023-03-22T07:33:25;99715.09;;;14.01;62.21
60897;BME280;46749;32.932;-117.130;2023-03-22T07:35:51;99717.69;;;14.00;62.25
60897;BME280;46749;32.932;-117.130;2023-03-22T07:38:17;99724.66;;;14.01;62.35
60897;BME280;46749;32.932;-117.130;2023-03-22T07:40:43;99722.91;;;14.00;62.29
60897;BME280;46749;32.932;-117.130;2023-03-22T07:43:10;99736.84;;;13.99;62.23
60897;BME280;46749;32.932;-117.130;2023-03-22T07:45:38;99753.38;;;13.99;62.32
60897;BME280;46749;32.932;-117.130;2023-03-22T07:48:05;99750.75;;;13.98;62.49
60897;BME280;46749;32.932;-117.130;2023-03-22T07:50:35;99755.97;;;13.98;62.11
60897;BME280;46749;32.932;-117.130;2023-03-22T07:53:02;99749.03;;;13.97;62.08
60897;BME280;46749;32.932;-117.130;2023-03-22T07:55:29;99759.47;;;13.97;62.28
60897;BME280;46749;32.932;-117.130;2023-03-22T07:57:55;99765.53;;;13.96;61.97
60897;BME280;46749;32.932;-117.130;2023-03-22T08:00:22;99762.94;;;13.96;62.14
60897;BME280;46749;32.932;-117.130;2023-03-22T08:02:48;99776.81;;;13.95;62.16
60897;BME280;46749;32.932;-117.130;2023-03-22T08:05:14;99771.59;;;13.95;61.96
60897;BME280;46749;32.932;-117.130;2023-03-22T08:07:40;99776.81;;;13.95;61.98
60897;BME280;46749;32.932;-117.130;2023-03-22T08:10:07;99775.94;;;13.94;62.11
60897;BME280;46749;32.932;-117.130;2023-03-22T08:12:33;99777.69;;;13.94;61.99
60897;BME280;46749;32.932;-117.130;2023-03-22T08:15:00;99788.13;;;13.94;62.33
60897;BME280;46749;32.932;-117.130;2023-03-22T08:17:26;99794.22;;;13.93;62.19
60897;BME280;46749;32.932;-117.130;2023-03-22T08:19:52;99793.34;;;13.92;62.16
60897;BME280;46749;32.932;-117.130;2023-03-22T08:22:22;99801.19;;;13.92;62.30
60897;BME280;46749;32.932;-117.130;2023-03-22T08:24:51;99797.69;;;13.92;62.22
60897;BME280;46749;32.932;-117.130;2023-03-22T08:27:18;99806.41;;;13.91;62.02
60897;BME280;46749;32.932;-117.130;2023-03-22T08:29:45;99807.28;;;13.91;62.06
60897;BME280;46749;32.932;-117.130;2023-03-22T08:32:12;99811.63;;;13.91;62.01
60897;BME280;46749;32.932;-117.130;2023-03-22T08:34:39;99818.56;;;13.90;62.42
60897;BME280;46749;32.932;-117.130;2023-03-22T08:37:06;99813.31;;;13.89;62.16
60897;BME280;46749;32.932;-117.130;2023-03-22T08:39:34;99822.88;;;13.88;62.15
60897;BME280;46749;32.932;-117.130;2023-03-22T08:42:01;99822.03;;;13.88;62.10
60897;BME280;46749;32.932;-117.130;2023-03-22T08:44:27;99828.09;;;13.87;62.24
60897;BME280;46749;32.932;-117.130;2023-03-22T08:46:54;99825.50;;;13.87;62.21
60897;BME280;46749;32.932;-117.130;2023-03-22T08:49:20;99836.81;;;13.86;62.19
60897;BME280;46749;32.932;-117.130;2023-03-22T08:51:46;99836.81;;;13.86;62.34
60897;BME280;46749;32.932;-117.130;2023-03-22T08:54:12;99842.03;;;13.86;62.22
60897;BME280;46749;32.932;-117.130;2023-03-22T08:56:39;99842.88;;;13.85;62.23
60897;BME280;46749;32.932;-117.130;2023-03-22T08:59:08;99853.31;;;13.85;62.01
60897;BME280;46749;32.932;-117.130;2023-03-22T09:01:35;99842.88;;;13.85;62.20
60897;BME280;46749;32.932;-117.130;2023-03-22T09:04:03;99855.94;;;13.83;62.13
60897;BME280;46749;32.932;-117.130;2023-03-22T09:06:29;99856.81;;;13.84;62.21
60897;BME280;46749;32.932;-117.130;2023-03-22T09:08:56;99855.03;;;13.83;62.06
60897;BME280;46749;32.932;-117.130;2023-03-22T09:11:22;99866.34;;;13.82;62.14
60897;BME280;46749;32.932;-117.130;2023-03-22T09:13:49;99866.34;;;13.82;62.32
60897;BME280;46749;32.932;-117.130;2023-03-22T09:16:16;99875.03;;;13.81;62.23
60897;BME280;46749;32.932;-117.130;2023-03-22T09:18:43;99886.34;;;13.81;62.29
60897;BME280;46749;32.932;-117.130;2023-03-22T09:21:10;99881.13;;;13.81;62.22
60897;BME280;46749;32.932;-117.130;2023-03-22T09:23:37;99888.06;;;13.81;62.12
60897;BME280;46749;32.932;-117.130;2023-03-22T09:26:06;99886.34;;;13.81;62.30
60897;BME280;46749;32.932;-117.130;2023-03-22T09:28:34;99900.25;;;13.80;61.72
60897;BME280;46749;32.932;-117.130;2023-03-22T09:31:02;99908.09;;;13.80;62.05
60897;BME280;46749;32.932;-117.130;2023-03-22T09:33:28;99907.22;;;13.80;62.09
60897;BME280;46749;32.932;-117.130;2023-03-22T09:35:55;99908.09;;;13.80;62.15
60897;BME280;46749;32.932;-117.130;2023-03-22T09:38:23;99905.47;;;13.79;62.15
60897;BME280;46749;32.932;-117.130;2023-03-22T09:40:53;99912.44;;;13.80;62.10
60897;BME280;46749;32.932;-117.130;2023-03-22T09:43:28;99915.91;;;13.79;62.07
60897;BME280;46749;32.932;-117.130;2023-03-22T09:45:55;99916.78;;;13.79;61.91
60897;BME280;46749;32.932;-117.130;2023-03-22T09:48:28;99926.34;;;13.79;62.02
60897;BME280;46749;32.932;-117.130;2023-03-22T09:50:56;99925.47;;;13.78;62.05
60897;BME280;46749;32.932;-117.130;2023-03-22T09:53:26;99930.69;;;13.78;62.01
60897;BME280;46749;32.932;-117.130;2023-03-22T09:56:19;99929.81;;;13.77;62.08
60897;BME280;46749;32.932;-117.130;2023-03-22T09:59:12;99928.94;;;13.77;62.09
60897;BME280;46749;32.932;-117.130;2023-03-22T10:01:47;99932.38;;;13.76;62.05
60897;BME280;46749;32.932;-117.130;2023-03-22T10:15:25;99944.56;;;13.74;61.89
60897;BME280;46749;32.932;-117.130;2023-03-22T10:17:55;99953.25;;;13.74;62.06
60897;BME280;46749;32.932;-117.130;2023-03-22T10:21:02;99956.72;;;13.72;62.22
60897;BME280;46749;32.932;-117.130;2023-03-22T10:23:53;99949.75;;;13.72;62.00
60897;BME280;46749;32.932;-117.130;2023-03-22T10:26:33;99954.97;;;13.71;62.08
60897;BME280;46749;32.932;-117.130;2023-03-22T10:31:43;99959.31;;;13.70;62.09
60897;BME280;46749;32.932;-117.130;2023-03-22T10:34:21;99964.53;;;13.70;62.16
60897;BME280;46749;32.932;-117.130;2023-03-22T10:36:50;99972.31;;;13.69;62.23
60897;BME280;46749;32.932;-117.130;2023-03-22T10:39:36;99975.81;;;13.69;62.16
60897;BME280;46749;32.932;-117.130;2023-03-22T10:42:14;99981.88;;;13.68;62.17
60897;BME280;46749;32.932;-117.130;2023-03-22T10:47:15;99982.75;;;13.69;62.10
60897;BME280;46749;32.932;-117.130;2023-03-22T10:49:51;99992.31;;;13.68;62.16
60897;BME280;46749;32.932;-117.130;2023-03-22T10:54:56;99994.94;;;13.67;62.23
60897;BME280;46749;32.932;-117.130;2023-03-22T10:57:23;100001.03;;;13.67;62.20
60897;BME280;46749;32.932;-117.130;2023-03-22T10:59:56;99995.78;;;13.66;61.89
60897;BME280;46749;32.932;-117.130;2023-03-22T11:02:29;100000.13;;;13.65;61.98
60897;BME280;46749;32.932;-117.130;2023-03-22T11:04:58;99997.53;;;13.65;61.96
60897;BME280;46749;32.932;-117.130;2023-03-22T11:07:36;100001.88;;;13.65;62.11
60897;BME280;46749;32.932;-117.130;2023-03-22T11:12:47;100002.75;;;13.65;62.28
60897;BME280;46749;32.932;-117.130;2023-03-22T11:15:31;100011.44;;;13.64;62.38
60897;BME280;46749;32.932;-117.130;2023-03-22T11:20:33;100017.47;;;13.63;62.23
60897;BME280;46749;32.932;-117.130;2023-03-22T11:23:02;100020.09;;;13.63;62.26
60897;BME280;46749;32.932;-117.130;2023-03-22T11:25:35;100035.75;;;13.63;62.30
60897;BME280;46749;32.932;-117.130;2023-03-22T11:30:32;100032.25;;;13.63;62.14
60897;BME280;46749;32.932;-117.130;2023-03-22T11:33:18;100034.00;;;13.62;62.15
60897;BME280;46749;32.932;-117.130;2023-03-22T11:35:52;100038.34;;;13.62;62.22
60897;BME280;46749;32.932;-117.130;2023-03-22T11:38:26;100044.44;;;13.62;62.13
60897;BME280;46749;32.932;-117.130;2023-03-22T11:41:00;100047.03;;;13.62;62.25
60897;BME280;46749;32.932;-117.130;2023-03-22T11:43:40;100042.69;;;13.61;62.19
60897;BME280;46749;32.932;-117.130;2023-03-22T11:46:09;100059.22;;;13.62;62.10
60897;BME280;46749;32.932;-117.130;2023-03-22T11:48:39;100056.59;;;13.60;62.21
60897;BME280;46749;32.932;-117.130;2023-03-22T11:51:15;100067.03;;;13.60;62.03
60897;BME280;46749;32.932;-117.130;2023-03-22T11:53:46;100069.63;;;13.59;62.06
60897;BME280;46749;32.932;-117.130;2023-03-22T11:56:17;100070.50;;;13.59;62.10
60897;BME280;46749;32.932;-117.130;2023-03-22T11:58:49;100075.72;;;13.59;62.12
60897;BME280;46749;32.932;-117.130;2023-03-22T12:03:57;100080.94;;;13.59;62.21
60897;BME280;46749;32.932;-117.130;2023-03-22T12:06:28;100084.41;;;13.58;62.26
60897;BME280;46749;32.932;-117.130;2023-03-22T12:09:02;100081.75;;;13.57;62.03
60897;BME280;46749;32.932;-117.130;2023-03-22T12:14:04;100088.72;;;13.56;62.12
60897;BME280;46749;32.932;-117.130;2023-03-22T12:16:55;100088.69;;;13.55;62.14
60897;BME280;46749;32.932;-117.130;2023-03-22T12:19:41;100095.66;;;13.54;62.10
60897;BME280;46749;32.932;-117.130;2023-03-22T12:22:16;100100.88;;;13.54;62.17
60897;BME280;46749;32.932;-117.130;2023-03-22T12:24:43;100106.09;;;13.54;62.30
60897;BME280;46749;32.932;-117.130;2023-03-22T12:27:14;100113.91;;;13.54;62.20
60897;BME280;46749;32.932;-117.130;2023-03-22T12:30:11;100124.34;;;13.54;62.24
60897;BME280;46749;32.932;-117.130;2023-03-22T12:32:39;100120.88;;;13.54;62.33
60897;BME280;46749;32.932;-117.130;2023-03-22T12:35:14;100125.19;;;13.53;62.29
60897;BME280;46749;32.932;-117.130;2023-03-22T12:37:42;100134.75;;;13.53;62.27
60897;BME280;46749;32.932;-117.130;2023-03-22T12:40:23;100126.06;;;13.52;62.37
60897;BME280;46749;32.932;-117.130;2023-03-22T12:43:12;100136.50;;;13.52;62.38
60897;BME280;46749;32.932;-117.130;2023-03-22T12:45:46;100141.72;;;13.52;62.18
60897;BME280;46749;32.932;-117.130;2023-03-22T12:48:53;100153.91;;;13.53;62.18
60897;BME280;46749;32.932;-117.130;2023-03-22T12:51:13;100155.66;;;13.54;62.18
60897;BME280;46749;32.932;-117.130;2023-03-22T12:53:49;100161.75;;;13.55;62.04
60897;BME280;46749;32.932;-117.130;2023-03-22T12:56:19;100173.03;;;13.54;62.17
60897;BME280;46749;32.932;-117.130;2023-03-22T12:58:49;100174.78;;;13.53;62.19
60897;BME280;46749;32.932;-117.130;2023-03-22T13:01:32;100175.66;;;13.54;62.27
60897;BME280;46749;32.932;-117.130;2023-03-22T13:09:44;100194.78;;;13.53;62.59
60897;BME280;46749;32.932;-117.130;2023-03-22T13:14:54;100204.34;;;13.52;62.38
60897;BME280;46749;32.932;-117.130;2023-03-22T13:19:53;100210.38;;;13.51;62.29
60897;BME280;46749;32.932;-117.130;2023-03-22T13:22:28;100216.44;;;13.50;62.30
60897;BME280;46749;32.932;-117.130;2023-03-22T13:28:01;100226.88;;;13.48;62.33
60897;BME280;46749;32.932;-117.130;2023-03-22T13:30:32;100230.34;;;13.49;62.21
60897;BME280;46749;32.932;-117.130;2023-03-22T13:35:42;100236.44;;;13.48;62.17
60897;BME280;46749;32.932;-117.130;2023-03-22T13:43:49;100251.25;;;13.50;62.29
60897;BME280;46749;32.932;-117.130;2023-03-22T13:56:55;100283.41;;;13.51;62.21
60897;BME280;46749;32.932;-117.130;2023-03-22T14:02:23;100294.72;;;13.50;62.12
60897;BME280;46749;32.932;-117.130;2023-03-22T14:04:58;100301.69;;;13.51;62.46
60897;BME280;46749;32.932;-117.130;2023-03-22T14:13:10;100326.97;;;13.55;62.49
60897;BME280;46749;32.932;-117.130;2023-03-22T14:16:10;100329.66;;;13.58;62.22
60897;BME280;46749;32.932;-117.130;2023-03-22T14:18:40;100334.94;;;13.61;62.35
60897;BME280;46749;32.932;-117.130;2023-03-22T14:21:17;100348.00;;;13.63;62.29
60897;BME280;46749;32.932;-117.130;2023-03-22T14:23:55;100351.53;;;13.66;62.33
60897;BME280;46749;32.932;-117.130;2023-03-22T14:26:41;100362.00;;;13.68;62.76
60897;BME280;46749;32.932;-117.130;2023-03-22T14:29:14;100359.47;;;13.71;62.47
60897;BME280;46749;32.932;-117.130;2023-03-22T14:31:45;100372.53;;;13.72;62.43
60897;BME280;46749;32.932;-117.130;2023-03-22T14:34:15;100371.69;;;13.75;62.50
60897;BME280;46749;32.932;-117.130;2023-03-22T14:36:44;100380.47;;;13.79;62.42
60897;BME280;46749;32.932;-117.130;2023-03-22T14:39:23;100380.50;;;13.82;62.68
60897;BME280;46749;32.932;-117.130;2023-03-22T14:42:03;100388.41;;;13.83;62.41
60897;BME280;46749;32.932;-117.130;2023-03-22T14:44:53;100391.91;;;13.87;62.65
60897;BME280;46749;32.932;-117.130;2023-03-22T14:47:28;100404.19;;;13.91;62.65